Flag for India

Past Weather in Mumbai, Maharashtra, India — Yesterday and Last 2 Weeks

Currently: 72 °F. Fog. (Weather station: Mumbai / Santacruz, India). See more current weather

Past Weather in Mumbai — Graph

°F

Mumbai Temperature Yesterday

Maximum temperature yesterday: 91 °F (at 3:00 pm)
Minimum temperature yesterday: 73 °F (at 2:30 am)
Average temperature yesterday: 80 °F

High & Low Weather Summary for the Past Weeks

 TemperatureHumidityPressure
High95 °F (Jan 12, 12:30 pm)89% (Jan 9, 4:30 am)29.98 "Hg (Jan 9, 4:30 am)
Low70 °F (Jan 16, 7:30 am)20% (Jan 21, 4:00 pm)29.74 "Hg (Jan 9, 3:00 pm)
Average81 °F59%29.85 "Hg
* Reported Jan 9 4:30 am — Jan 24 4:30 am, Mumbai. Weather by CustomWeather, © 2021

Note: Actual official high and low records may vary slightly from our data, if they occured in-between our weather recording intervals... More about our weather records

Mumbai Weather History for the Previous 24 Hours

Scroll right to see more
 ConditionsComfort  
Time TempWeatherWind HumidityBarometerVisibility
4:30 am
Sun, Jan 24
73 °FFog.No wind74%29.86 "Hg1 mi
4:00 am73 °FFog.No wind78%29.86 "Hg1 mi
3:30 am73 °FHaze.No wind78%29.86 "Hg1 mi
3:00 am73 °FHaze.No wind78%29.89 "Hg1 mi
2:30 am73 °FHaze.No wind78%29.89 "Hg1 mi
2:00 am73 °FHaze.No wind78%29.89 "Hg1 mi
1:30 am73 °FHaze.3 mph74%29.89 "Hg1 mi
1:00 am73 °FHaze.3 mph78%29.89 "Hg1 mi
12:30 am75 °FHaze.3 mph69%29.89 "Hg2 mi
12:00 am77 °FHaze.3 mph65%29.89 "Hg2 mi
11:30 pm
Sat, Jan 23
79 °FClear.3 mph58%29.89 "Hg2 mi
11:00 pm79 °FClear.No wind61%29.89 "Hg2 mi
10:30 pm79 °FClear.3 mph58%29.89 "Hg2 mi
10:00 pm79 °FClear.3 mph58%29.89 "Hg2 mi
9:30 pm81 °FClear.3 mph54%29.89 "Hg2 mi
9:00 pm81 °FClear.3 mph54%29.89 "Hg2 mi
8:30 pm81 °FClear.3 mph54%29.89 "Hg2 mi
8:00 pm81 °FClear.3 mph54%29.86 "Hg2 mi
7:30 pm81 °FClear.5 mph54%29.86 "Hg2 mi
7:00 pm81 °FClear.5 mph58%29.86 "Hg2 mi
6:30 pm82 °FClear.7 mph55%29.83 "Hg2 mi
6:00 pm84 °FClear.8 mph48%29.83 "Hg1 mi
5:30 pm84 °FClear.9 mph48%29.83 "Hg1 mi
5:00 pm86 °FClear.10 mph46%29.80 "Hg1 mi
4:30 pm88 °FClear.9 mph43%29.80 "Hg1 mi
4:00 pm90 °FClear.10 mph41%29.80 "Hg1 mi
3:30 pm90 °FClear.9 mph38%29.80 "Hg1 mi
3:00 pm91 °FClear.8 mph41%29.83 "Hg1 mi
2:30 pm90 °FClear.10 mph43%29.83 "Hg1 mi
2:00 pm88 °FClear.13 mph46%29.86 "Hg1 mi
1:30 pm88 °FClear.12 mph46%29.86 "Hg1 mi
1:00 pm90 °FClear.8 mph41%29.89 "Hg1 mi
12:30 pm90 °FClear.3 mph36%29.89 "Hg1 mi
12:00 pm88 °FClear.6 mph40%29.92 "Hg1 mi
11:30 am86 °FClear.6 mph46%29.92 "Hg1 mi
11:00 am84 °FClear.6 mph48%29.95 "Hg1 mi
10:30 am82 °FClear.5 mph48%29.95 "Hg1 mi
10:00 am81 °FClear.3 mph51%29.95 "Hg1 mi
9:30 am79 °FClear.No wind58%29.95 "Hg1 mi
9:00 am77 °FClear.3 mph54%29.92 "Hg1 mi
8:30 am75 °FHaze.3 mph57%29.92 "Hg1 mi
8:00 am75 °FHaze.No wind57%29.89 "Hg1 mi
7:30 am73 °FHaze.3 mph61%29.89 "Hg1 mi
7:00 am75 °FHaze.5 mph57%29.89 "Hg1 mi
6:30 am73 °FHaze.3 mph61%29.86 "Hg1 mi
6:00 am73 °FHaze.5 mph65%29.86 "Hg1 mi
5:30 am75 °FHaze.N/A65%29.86 "Hg1 mi
5:00 am73 °FHaze.3 mph69%29.83 "Hg1 mi
Weather by CustomWeather, © 2021

See weather overview